createdAt,value
2022-11-20T00:00:02.752Z,6.93
2022-11-20T00:02:40.202Z,9.45
2022-11-20T00:05:13.859Z,4.43
2022-11-20T00:07:45.388Z,6.55
2022-11-20T00:10:17.216Z,8.18
2022-11-20T00:12:46.989Z,10.27
2022-11-20T00:15:17.355Z,10.18
2022-11-20T00:17:48.225Z,5.13
2022-11-20T00:20:18.356Z,7.90
2022-11-20T00:22:50.506Z,23.58
2022-11-20T00:25:22.036Z,12.52
2022-11-20T00:27:56.388Z,14.13
2022-11-20T00:30:28.405Z,13.38
2022-11-20T00:33:01.599Z,9.75
2022-11-20T00:35:32.340Z,5.15
2022-11-20T00:38:05.579Z,5.20
2022-11-20T00:40:33.806Z,5.22
2022-11-20T00:43:05.181Z,5.97
2022-11-20T00:45:36.431Z,6.22
2022-11-20T00:48:06.312Z,7.10
2022-11-20T00:50:37.487Z,11.48
2022-11-20T00:53:12.283Z,5.25
2022-11-20T00:55:43.674Z,4.85
2022-11-20T00:58:14.517Z,7.65
2022-11-20T01:00:44.050Z,5.72
2022-11-20T01:03:16.484Z,6.82
2022-11-20T01:05:47.223Z,8.13
2022-11-20T01:08:19.388Z,9.18
2022-11-20T01:10:53.690Z,8.23
2022-11-20T01:13:41.479Z,5.33
2022-11-20T01:16:21.729Z,4.65
2022-11-20T01:18:52.961Z,5.13
2022-11-20T01:21:34.551Z,4.95
2022-11-20T01:24:24.185Z,6.97
2022-11-20T01:26:56.892Z,5.85
2022-11-20T01:29:41.702Z,4.30
2022-11-20T01:32:12.427Z,4.80
2022-11-20T01:34:46.036Z,5.55
2022-11-20T01:37:19.533Z,5.43
2022-11-20T01:39:51.686Z,3.95
2022-11-20T01:42:40.275Z,5.05
2022-11-20T01:45:50.774Z,5.78
2022-11-20T01:48:21.649Z,5.57
2022-11-20T01:50:50.964Z,6.07
2022-11-20T01:53:34.959Z,6.78
2022-11-20T01:56:06.609Z,3.75
2022-11-20T01:58:42.111Z,6.07
2022-11-20T02:01:18.902Z,5.72
2022-11-20T02:03:53.919Z,5.75
2022-11-20T02:07:03.419Z,5.57
2022-11-20T02:09:36.835Z,7.10
2022-11-20T02:12:06.611Z,6.22
2022-11-20T02:14:34.111Z,6.85
2022-11-20T02:17:08.666Z,9.00
2022-11-20T02:19:38.171Z,4.00
2022-11-20T02:22:46.661Z,6.55
2022-11-20T02:25:17.309Z,7.78
2022-11-20T02:27:48.282Z,7.28
2022-11-20T02:30:21.907Z,8.70
2022-11-20T02:32:54.940Z,8.75
2022-11-20T02:35:30.065Z,9.98
2022-11-20T02:38:05.697Z,6.47
2022-11-20T02:40:36.464Z,7.70
2022-11-20T02:43:04.376Z,5.80
2022-11-20T02:45:37.546Z,6.55
2022-11-20T02:48:06.867Z,9.23
2022-11-20T02:50:39.088Z,6.18
2022-11-20T02:53:10.784Z,7.82
2022-11-20T02:55:39.328Z,9.50
2022-11-20T02:58:08.615Z,9.00
2022-11-20T03:00:37.267Z,6.97
2022-11-20T03:03:05.055Z,7.75
2022-11-20T03:05:32.938Z,7.70
2022-11-20T03:08:03.455Z,9.32
2022-11-20T03:10:35.804Z,9.18
2022-11-20T03:13:03.867Z,10.38
2022-11-20T03:15:34.006Z,9.32
2022-11-20T03:18:06.964Z,9.80
2022-11-20T03:20:40.790Z,10.55
2022-11-20T03:23:10.504Z,11.52
2022-11-20T03:25:39.067Z,9.18
2022-11-20T03:28:09.194Z,10.07
2022-11-20T03:30:43.938Z,11.18
2022-11-20T03:33:15.442Z,12.30
2022-11-20T03:35:45.281Z,12.07
2022-11-20T03:38:17.956Z,11.60
2022-11-20T03:40:52.268Z,12.00
2022-11-20T03:43:27.924Z,9.80
2022-11-20T03:46:01.396Z,13.02
2022-11-20T03:48:30.412Z,10.38
2022-11-20T03:51:30.158Z,10.98
2022-11-20T03:54:18.884Z,11.52
2022-11-20T03:56:49.185Z,11.07
2022-11-20T03:59:23.958Z,11.32
2022-11-20T04:01:55.927Z,11.35
2022-11-20T04:04:30.116Z,11.13
2022-11-20T04:06:59.187Z,11.88
2022-11-20T04:09:27.031Z,13.07
2022-11-20T04:11:58.976Z,17.48
2022-11-20T04:14:29.287Z,21.55
2022-11-20T04:16:57.003Z,18.75
2022-11-20T04:19:28.630Z,18.83
2022-11-20T04:21:59.412Z,18.00
2022-11-20T04:24:32.073Z,19.73
2022-11-20T04:27:02.987Z,22.67
2022-11-20T04:29:32.462Z,23.55
2022-11-20T04:32:02.341Z,19.48
2022-11-20T04:34:35.581Z,20.85
2022-11-20T04:37:06.399Z,21.80
2022-11-20T04:39:35.582Z,22.02
2022-11-20T04:42:29.606Z,24.27
2022-11-20T04:45:09.823Z,20.50
2022-11-20T04:47:39.566Z,20.75
2022-11-20T04:50:08.457Z,24.00
2022-11-20T04:52:39.347Z,19.77
2022-11-20T04:55:15.758Z,20.73
2022-11-20T04:57:44.946Z,21.65
2022-11-20T05:00:17.405Z,22.65
2022-11-20T05:02:50.163Z,21.52
2022-11-20T05:05:21.517Z,22.17
2022-11-20T05:07:52.912Z,22.85
2022-11-20T05:10:23.438Z,21.60
2022-11-20T05:12:53.402Z,21.80
2022-11-20T05:15:24.624Z,21.48
2022-11-20T05:17:55.894Z,22.10
2022-11-20T05:20:25.670Z,28.88
2022-11-20T05:22:55.643Z,24.88
2022-11-20T05:25:27.844Z,25.23
2022-11-20T05:27:58.977Z,26.38
2022-11-20T05:30:32.132Z,31.33
2022-11-20T05:33:01.239Z,27.35
2022-11-20T05:35:32.915Z,28.10
2022-11-20T05:38:02.722Z,25.60
2022-11-20T05:40:33.920Z,29.27
2022-11-20T05:43:06.349Z,27.95
2022-11-20T05:45:38.458Z,26.38
2022-11-20T05:48:09.439Z,25.15
2022-11-20T05:50:37.635Z,26.85
2022-11-20T05:53:07.443Z,28.23
2022-11-20T05:58:18.876Z,27.75
2022-11-20T06:00:48.589Z,25.42
2022-11-20T06:03:22.259Z,26.98
2022-11-20T06:05:53.610Z,24.38
2022-11-20T06:08:23.409Z,25.65
2022-11-20T06:10:53.364Z,23.73
2022-11-20T06:13:25.461Z,26.38
2022-11-20T06:15:57.098Z,23.40
2022-11-20T06:18:29.314Z,20.55
2022-11-20T06:21:22.824Z,25.40
2022-11-20T06:23:58.165Z,23.58
2022-11-20T06:26:31.334Z,21.23
2022-11-20T06:29:05.677Z,21.75
2022-11-20T06:31:39.792Z,24.70
2022-11-20T06:36:36.420Z,20.38
2022-11-20T06:39:07.614Z,20.50
2022-11-20T06:41:37.671Z,19.17
2022-11-20T06:44:12.685Z,18.63
2022-11-20T06:46:47.619Z,21.05
2022-11-20T06:49:17.626Z,20.17
2022-11-20T06:51:46.533Z,23.13
2022-11-20T06:54:17.449Z,23.88
2022-11-20T06:56:53.344Z,20.38
2022-11-20T06:59:23.310Z,21.30
2022-11-20T07:01:55.998Z,17.50
2022-11-20T07:04:28.368Z,21.90
2022-11-20T07:07:00.861Z,23.02
2022-11-20T07:09:30.395Z,21.48
2022-11-20T07:12:06.947Z,22.85
2022-11-20T07:14:37.158Z,24.38
2022-11-20T07:17:06.793Z,20.70
2022-11-20T07:19:38.365Z,25.98
2022-11-20T07:22:07.411Z,25.55
2022-11-20T07:24:41.906Z,19.30
2022-11-20T07:27:17.947Z,21.00
2022-11-20T07:29:50.828Z,19.70
2022-11-20T07:32:24.194Z,22.27
2022-11-20T07:34:56.184Z,21.15
2022-11-20T07:37:28.015Z,21.20
2022-11-20T07:40:00.591Z,14.40
2022-11-20T07:42:31.151Z,18.42
2022-11-20T07:44:59.187Z,20.70
2022-11-20T07:47:29.492Z,13.57
2022-11-20T07:50:01.002Z,13.98
2022-11-20T07:52:37.321Z,16.13
2022-11-20T07:55:06.409Z,14.88
2022-11-20T07:57:38.166Z,12.07
2022-11-20T08:00:13.202Z,12.18
2022-11-20T08:02:46.106Z,11.07
2022-11-20T08:05:19.535Z,11.88
2022-11-20T08:07:50.936Z,12.60
2022-11-20T08:10:22.287Z,11.48
2022-11-20T08:13:15.706Z,10.30
2022-11-20T08:15:56.727Z,10.63
2022-11-20T08:18:31.891Z,9.57
2022-11-20T08:21:08.815Z,10.70
2022-11-20T08:23:39.820Z,9.32
2022-11-20T08:26:09.362Z,10.60
2022-11-20T08:28:41.367Z,11.70
2022-11-20T08:31:16.121Z,12.38
2022-11-20T08:33:48.264Z,11.38
2022-11-20T08:36:20.250Z,11.88
2022-11-20T08:39:04.356Z,14.35
2022-11-20T08:41:41.660Z,12.40
2022-11-20T08:44:12.775Z,12.68
2022-11-20T08:46:47.896Z,15.27
2022-11-20T08:49:24.090Z,13.48
2022-11-20T08:51:57.203Z,15.20
2022-11-20T08:54:30.369Z,13.73
2022-11-20T08:57:02.654Z,15.02
2022-11-20T09:00:04.259Z,15.13
2022-11-20T09:02:30.395Z,14.48
2022-11-20T09:04:59.976Z,38.25
2022-11-20T09:07:28.996Z,64.15
2022-11-20T09:12:58.970Z,21.30
2022-11-20T09:15:29.516Z,19.40
2022-11-20T09:18:09.237Z,30.40
2022-11-20T09:20:39.980Z,31.70
2022-11-20T09:23:12.693Z,21.70
2022-11-20T09:25:40.792Z,20.35
2022-11-20T09:28:12.925Z,18.65
2022-11-20T09:30:43.751Z,18.13
2022-11-20T09:33:14.262Z,20.35
2022-11-20T09:35:43.963Z,23.25
2022-11-20T09:38:20.457Z,22.38
2022-11-20T09:41:10.184Z,19.90
2022-11-20T09:44:00.099Z,19.30
2022-11-20T09:46:54.490Z,17.70
2022-11-20T09:49:48.386Z,25.92
2022-11-20T09:52:37.187Z,14.77
2022-11-20T09:55:19.007Z,18.10
2022-11-20T09:57:57.093Z,20.95
2022-11-20T10:00:29.486Z,19.17
2022-11-20T10:03:42.192Z,20.50
2022-11-20T10:06:17.481Z,20.92
2022-11-20T10:09:16.941Z,24.75
2022-11-20T10:12:24.712Z,25.88
2022-11-20T10:15:34.562Z,26.80
2022-11-20T10:18:36.147Z,35.13
2022-11-20T10:21:31.857Z,33.38
2022-11-20T10:25:01.184Z,31.10
2022-11-20T10:27:53.132Z,28.27
2022-11-20T10:33:57.030Z,29.60
2022-11-20T10:36:43.118Z,31.88
2022-11-20T10:39:31.017Z,33.75
2022-11-20T10:42:06.469Z,27.65
2022-11-20T10:45:04.145Z,32.03
2022-11-20T10:47:39.696Z,29.08
2022-11-20T10:50:22.628Z,28.25
2022-11-20T10:53:15.786Z,30.08
2022-11-20T10:56:04.868Z,31.85
2022-11-20T10:59:10.345Z,31.92
2022-11-20T11:01:45.700Z,32.05
2022-11-20T11:04:43.895Z,34.45
2022-11-20T11:07:42.758Z,32.05
2022-11-20T11:10:54.977Z,24.88
2022-11-20T11:13:29.890Z,28.95
2022-11-20T11:16:02.019Z,22.02
2022-11-20T11:18:38.052Z,21.42
2022-11-20T11:21:13.844Z,20.85
2022-11-20T11:23:44.297Z,18.77
2022-11-20T11:26:24.865Z,19.55
2022-11-20T11:29:00.852Z,19.27
2022-11-20T11:31:36.391Z,18.25
2022-11-20T11:37:00.548Z,24.95
2022-11-20T11:39:43.697Z,27.55
2022-11-20T11:42:39.013Z,23.67
2022-11-20T11:45:16.562Z,31.17
2022-11-20T11:47:55.246Z,34.42
2022-11-20T11:50:29.515Z,30.30
2022-11-20T11:53:25.835Z,30.83
2022-11-20T11:56:22.302Z,33.42
2022-11-20T11:59:03.405Z,34.70
2022-11-20T12:01:51.650Z,32.90
2022-11-20T12:04:56.449Z,31.55
2022-11-20T12:07:47.325Z,31.27
2022-11-20T12:10:26.877Z,24.65
2022-11-20T12:13:32.737Z,25.00
2022-11-20T12:16:07.114Z,24.20
2022-11-20T12:18:43.975Z,26.17
2022-11-20T12:21:23.098Z,19.42
2022-11-20T12:24:24.954Z,24.17
2022-11-20T12:27:33.550Z,25.67
2022-11-20T12:30:23.890Z,25.88
2022-11-20T12:33:28.299Z,25.98
2022-11-20T12:36:37.188Z,34.47
2022-11-20T12:39:38.993Z,27.92
2022-11-20T12:42:53.906Z,31.00
2022-11-20T12:45:56.894Z,32.97
2022-11-20T12:48:30.588Z,34.75
2022-11-20T12:51:24.919Z,35.10
2022-11-20T12:54:33.886Z,29.77
2022-11-20T12:57:53.680Z,31.48
2022-11-20T13:00:27.162Z,25.17
2022-11-20T13:03:37.162Z,33.13
2022-11-20T13:06:22.479Z,29.83
2022-11-20T13:08:58.487Z,30.38
2022-11-20T13:12:00.175Z,33.25
2022-11-20T13:15:20.435Z,31.23
2022-11-20T13:18:05.686Z,30.38
2022-11-20T13:20:39.251Z,35.33
2022-11-20T13:23:08.233Z,27.37
2022-11-20T13:25:41.319Z,37.85
2022-11-20T13:28:19.156Z,42.17
2022-11-20T13:30:57.439Z,38.13
2022-11-20T13:33:36.382Z,41.70
2022-11-20T13:36:22.083Z,41.83
2022-11-20T13:38:56.430Z,39.83
2022-11-20T13:41:42.401Z,39.20
2022-11-20T13:44:18.363Z,37.90
2022-11-20T13:46:52.541Z,37.60
2022-11-20T13:49:49.361Z,36.42
2022-11-20T13:52:43.324Z,40.08
2022-11-20T13:55:55.311Z,34.85
2022-11-20T13:59:05.046Z,36.55
2022-11-20T14:01:38.442Z,30.65
2022-11-20T14:06:49.303Z,27.20
2022-11-20T14:09:42.315Z,27.42
2022-11-20T14:12:31.416Z,33.30
2022-11-20T14:15:00.466Z,29.35
2022-11-20T14:17:44.658Z,40.22
2022-11-20T14:20:21.967Z,50.55
2022-11-20T14:23:05.639Z,44.55
2022-11-20T14:25:38.569Z,38.88
2022-11-20T14:28:12.999Z,39.70
2022-11-20T14:30:51.839Z,33.97
2022-11-20T14:33:31.448Z,31.85
2022-11-20T14:36:05.873Z,30.27
2022-11-20T14:38:34.166Z,48.40
2022-11-20T14:41:25.200Z,31.13
2022-11-20T14:44:04.465Z,44.78
2022-11-20T14:46:40.346Z,31.55
2022-11-20T14:49:22.300Z,25.67
2022-11-20T14:52:02.148Z,31.08
2022-11-20T14:54:52.503Z,64.30
2022-11-20T14:57:40.530Z,31.60
2022-11-20T15:00:24.991Z,34.78
2022-11-20T15:03:00.592Z,31.98
2022-11-20T15:08:31.136Z,28.30
2022-11-20T15:11:00.048Z,42.75
2022-11-20T15:13:36.378Z,33.35
2022-11-20T15:16:24.285Z,37.40
2022-11-20T15:18:58.839Z,42.38
2022-11-20T15:21:29.011Z,42.50
2022-11-20T15:24:01.662Z,29.75
2022-11-20T15:26:34.492Z,30.00
2022-11-20T15:29:05.395Z,28.83
2022-11-20T15:31:35.195Z,23.98
2022-11-20T15:34:08.516Z,29.75
2022-11-20T15:36:40.142Z,37.60
2022-11-20T15:39:10.231Z,28.30
2022-11-20T15:41:41.029Z,35.10
2022-11-20T15:44:11.067Z,26.55
2022-11-20T15:47:03.159Z,26.85
2022-11-20T15:49:31.934Z,23.27
2022-11-20T15:52:01.129Z,33.10
2022-11-20T15:54:31.870Z,34.65
2022-11-20T15:57:06.258Z,25.88
2022-11-20T15:59:38.073Z,22.58
2022-11-20T16:02:19.186Z,23.75
2022-11-20T16:04:49.501Z,24.98
2022-11-20T16:07:20.323Z,31.98
2022-11-20T16:09:49.836Z,31.13
2022-11-20T16:12:42.405Z,22.73
2022-11-20T16:15:37.441Z,25.17
2022-11-20T16:18:27.712Z,22.77
2022-11-20T16:20:59.580Z,24.63
2022-11-20T16:23:28.510Z,24.75
2022-11-20T16:26:00.198Z,26.67
2022-11-20T16:28:30.101Z,26.42
2022-11-20T16:31:00.327Z,30.67
2022-11-20T16:33:28.777Z,27.40
2022-11-20T16:36:01.795Z,28.73
2022-11-20T16:38:36.331Z,44.38
2022-11-20T16:41:09.535Z,46.75
2022-11-20T16:43:37.909Z,36.25
2022-11-20T16:46:11.173Z,30.05
2022-11-20T16:48:40.845Z,31.02
2022-11-20T16:51:11.945Z,32.13
2022-11-20T16:53:41.482Z,27.20
2022-11-20T16:56:20.398Z,30.55
2022-11-20T16:58:54.229Z,28.88
2022-11-20T17:01:53.398Z,29.48
2022-11-20T17:04:24.191Z,28.17
2022-11-20T17:06:55.710Z,28.10
2022-11-20T17:09:26.023Z,27.02
2022-11-20T17:11:57.426Z,27.73
2022-11-20T17:14:26.833Z,25.98
2022-11-20T17:16:57.148Z,26.90
2022-11-20T17:19:29.149Z,27.70
2022-11-20T17:21:57.372Z,26.15
2022-11-20T17:24:31.598Z,25.30
2022-11-20T17:27:03.526Z,26.17
2022-11-20T17:29:37.765Z,26.15
2022-11-20T17:32:13.009Z,27.05
2022-11-20T17:34:42.387Z,27.92
2022-11-20T17:37:13.298Z,30.35
2022-11-20T17:39:48.602Z,32.38
2022-11-20T17:42:48.484Z,30.05
2022-11-20T17:45:19.403Z,33.13
2022-11-20T17:47:52.878Z,27.77
2022-11-20T17:50:23.242Z,30.75
2022-11-20T17:52:59.295Z,30.70
2022-11-20T17:55:26.864Z,30.77
2022-11-20T17:57:59.025Z,30.02
2022-11-20T18:00:31.918Z,35.53
2022-11-20T18:03:07.976Z,31.50
2022-11-20T18:05:42.515Z,36.25
2022-11-20T18:08:10.299Z,32.40
2022-11-20T18:10:42.495Z,36.38
2022-11-20T18:13:13.275Z,38.17
2022-11-20T18:15:49.554Z,39.03
2022-11-20T18:18:18.772Z,36.33
2022-11-20T18:20:53.972Z,36.45
2022-11-20T18:23:23.665Z,36.10
2022-11-20T18:25:53.058Z,33.05
2022-11-20T18:28:22.803Z,35.75
2022-11-20T18:30:54.649Z,37.47
2022-11-20T18:33:28.604Z,40.63
2022-11-20T18:35:59.697Z,37.42
2022-11-20T18:38:29.509Z,39.83
2022-11-20T18:41:03.605Z,40.33
2022-11-20T18:43:54.398Z,49.33
2022-11-20T18:46:25.913Z,39.00
2022-11-20T18:48:55.197Z,38.90
2022-11-20T18:51:22.342Z,38.75
2022-11-20T18:56:35.496Z,34.53
2022-11-20T18:59:09.903Z,35.03
2022-11-20T19:01:42.608Z,34.55
2022-11-20T19:04:17.779Z,33.75
2022-11-20T19:06:51.218Z,34.75
2022-11-20T19:09:20.880Z,36.53
2022-11-20T19:11:53.030Z,34.17
2022-11-20T19:14:23.017Z,33.97
2022-11-20T19:16:53.871Z,37.17
2022-11-20T19:19:23.096Z,36.60
2022-11-20T19:21:52.430Z,34.83
2022-11-20T19:24:23.334Z,41.35
2022-11-20T19:26:53.066Z,38.15
2022-11-20T19:29:22.024Z,37.85
2022-11-20T19:31:50.410Z,36.03
2022-11-20T19:34:19.372Z,32.80
2022-11-20T19:36:48.768Z,36.25
2022-11-20T19:39:21.610Z,36.60
2022-11-20T19:41:54.825Z,38.35
2022-11-20T19:44:25.239Z,38.58
2022-11-20T19:46:52.979Z,39.45
2022-11-20T19:49:22.817Z,36.08
2022-11-20T19:51:55.957Z,38.05
2022-11-20T19:54:25.797Z,36.58
2022-11-20T19:56:54.830Z,36.08
2022-11-20T19:59:26.259Z,33.97
2022-11-20T20:01:56.864Z,37.72
2022-11-20T20:04:29.756Z,40.85
2022-11-20T20:07:04.691Z,34.67
2022-11-20T20:09:38.691Z,36.63
2022-11-20T20:12:07.924Z,36.00
2022-11-20T20:14:40.448Z,38.90
2022-11-20T20:17:11.293Z,32.05
2022-11-20T20:20:00.160Z,33.95
2022-11-20T20:22:32.293Z,32.83
2022-11-20T20:24:59.929Z,32.28
2022-11-20T20:27:31.667Z,33.95
2022-11-20T20:30:02.525Z,35.10
2022-11-20T20:32:36.324Z,36.63
2022-11-20T20:37:52.502Z,33.60
2022-11-20T20:40:24.162Z,31.23
2022-11-20T20:42:54.954Z,31.48
2022-11-20T20:45:26.874Z,34.72
2022-11-20T20:47:58.715Z,33.55
2022-11-20T20:50:30.045Z,32.15
2022-11-20T20:52:58.494Z,33.58
2022-11-20T20:55:26.202Z,34.75
2022-11-20T20:57:58.567Z,34.60
2022-11-20T21:00:28.496Z,33.28
2022-11-20T21:02:56.986Z,31.85
2022-11-20T21:05:26.340Z,31.50
2022-11-20T21:08:13.438Z,35.63
2022-11-20T21:10:42.249Z,34.17
2022-11-20T21:13:14.038Z,34.28
2022-11-20T21:15:46.025Z,36.67
2022-11-20T21:21:30.403Z,50.63
2022-11-20T21:24:03.698Z,31.83
2022-11-20T21:26:34.515Z,35.33
2022-11-20T21:29:06.569Z,32.55
2022-11-20T21:31:41.033Z,30.30
2022-11-20T21:34:25.049Z,34.65
2022-11-20T21:36:55.814Z,34.65
2022-11-20T21:39:24.504Z,31.38
2022-11-20T21:41:53.949Z,35.70
2022-11-20T21:44:41.634Z,33.15
2022-11-20T21:47:16.404Z,30.35
2022-11-20T21:49:47.648Z,32.67
2022-11-20T21:52:19.680Z,35.80
2022-11-20T21:54:50.415Z,33.05
2022-11-20T21:57:22.728Z,31.13
2022-11-20T21:59:51.277Z,36.90
2022-11-20T22:02:23.097Z,29.73
2022-11-20T22:04:51.067Z,33.13
2022-11-20T22:07:22.191Z,27.08
2022-11-20T22:09:54.622Z,28.75
2022-11-20T22:12:25.198Z,28.45
2022-11-20T22:14:58.555Z,29.13
2022-11-20T22:17:48.410Z,25.98
2022-11-20T22:20:21.394Z,31.65
2022-11-20T22:22:53.605Z,29.77
2022-11-20T22:25:23.543Z,30.30
2022-11-20T22:27:54.470Z,28.77
2022-11-20T22:30:26.835Z,32.22
2022-11-20T22:32:59.291Z,31.08
2022-11-20T22:35:30.518Z,29.70
2022-11-20T22:38:02.950Z,31.58
2022-11-20T22:40:36.226Z,33.13
2022-11-20T22:43:08.589Z,31.55
2022-11-20T22:45:36.023Z,33.80
2022-11-20T22:48:08.221Z,33.55
2022-11-20T22:50:39.937Z,30.77
2022-11-20T22:53:13.287Z,33.85
2022-11-20T22:55:44.810Z,31.13
2022-11-20T22:58:15.726Z,35.92
2022-11-20T23:00:46.463Z,35.17
2022-11-20T23:03:14.223Z,38.25
2022-11-20T23:05:43.800Z,39.10
2022-11-20T23:08:13.863Z,36.03
2022-11-20T23:10:44.125Z,37.42
2022-11-20T23:13:13.738Z,35.30
2022-11-20T23:15:43.654Z,38.60
2022-11-20T23:18:13.342Z,37.13
2022-11-20T23:20:43.359Z,39.25
2022-11-20T23:23:12.146Z,44.50
2022-11-20T23:25:42.932Z,41.63
2022-11-20T23:28:14.178Z,45.33
2022-11-20T23:30:46.525Z,47.55
2022-11-20T23:33:17.595Z,46.40
2022-11-20T23:35:52.672Z,41.40
2022-11-20T23:40:53.057Z,37.55
2022-11-20T23:43:25.178Z,38.50
2022-11-20T23:45:59.030Z,35.67
2022-11-20T23:48:30.593Z,36.30
2022-11-20T23:51:00.602Z,35.65
2022-11-20T23:53:29.657Z,38.00
2022-11-20T23:56:02.483Z,35.17
2022-11-20T23:58:37.757Z,36.35
